sensor_id;sensor_type;location;lat;lon;timestamp;P1;durP1;ratioP1;P2;durP2;ratioP2
47103;SDS011;32853;52.164;5.400;2022-07-17T13:58:41;2.50;;;1.15;;
47103;SDS011;32853;52.164;5.400;2022-07-17T14:01:06;2.92;;;1.23;;
47103;SDS011;32853;52.164;5.400;2022-07-17T14:03:35;3.47;;;1.05;;
47103;SDS011;32853;52.164;5.400;2022-07-17T14:06:01;3.35;;;1.30;;
47103;SDS011;32853;52.164;5.400;2022-07-17T14:08:26;3.93;;;1.27;;
47103;SDS011;32853;52.164;5.400;2022-07-17T14:10:51;6.00;;;1.30;;
47103;SDS011;32853;52.164;5.400;2022-07-17T14:13:17;4.57;;;1.17;;
47103;SDS011;32853;52.164;5.400;2022-07-17T14:15:43;3.63;;;1.40;;
47103;SDS011;32853;52.164;5.400;2022-07-17T14:18:08;3.27;;;1.20;;
47103;SDS011;32853;52.164;5.400;2022-07-17T14:20:33;2.35;;;1.10;;
47103;SDS011;32853;52.164;5.400;2022-07-17T14:22:59;4.03;;;1.33;;
47103;SDS011;32853;52.164;5.400;2022-07-17T14:31:44;6.03;;;1.40;;
47103;SDS011;32853;52.164;5.400;2022-07-17T14:34:11;5.68;;;1.60;;
47103;SDS011;32853;52.164;5.400;2022-07-17T14:36:37;2.40;;;1.30;;
47103;SDS011;32853;52.164;5.400;2022-07-17T14:39:03;3.13;;;1.70;;
47103;SDS011;32853;52.164;5.400;2022-07-17T14:41:28;2.80;;;1.50;;
47103;SDS011;32853;52.164;5.400;2022-07-17T14:43:53;5.63;;;2.40;;
47103;SDS011;32853;52.164;5.400;2022-07-17T14:46:19;5.30;;;2.17;;
47103;SDS011;32853;52.164;5.400;2022-07-17T14:48:44;4.57;;;2.57;;
47103;SDS011;32853;52.164;5.400;2022-07-17T14:51:09;5.32;;;2.85;;
47103;SDS011;32853;52.164;5.400;2022-07-17T14:53:35;5.43;;;2.77;;
47103;SDS011;32853;52.164;5.400;2022-07-17T14:56:01;7.70;;;3.20;;
47103;SDS011;32853;52.164;5.400;2022-07-17T14:58:26;3.38;;;1.73;;
47103;SDS011;32853;52.164;5.400;2022-07-17T15:00:51;3.03;;;1.30;;
47103;SDS011;32853;52.164;5.400;2022-07-17T15:03:17;3.20;;;1.37;;
47103;SDS011;32853;52.164;5.400;2022-07-17T15:05:42;4.83;;;1.83;;
47103;SDS011;32853;52.164;5.400;2022-07-17T15:08:07;6.63;;;1.80;;
47103;SDS011;32853;52.164;5.400;2022-07-17T15:10:32;3.95;;;1.77;;
47103;SDS011;32853;52.164;5.400;2022-07-17T15:12:58;4.33;;;2.00;;
47103;SDS011;32853;52.164;5.400;2022-07-17T15:15:24;4.35;;;1.90;;
47103;SDS011;32853;52.164;5.400;2022-07-17T15:17:50;3.40;;;1.90;;
47103;SDS011;32853;52.164;5.400;2022-07-17T15:20:15;5.20;;;2.00;;
47103;SDS011;32853;52.164;5.400;2022-07-17T15:22:41;6.47;;;2.70;;
47103;SDS011;32853;52.164;5.400;2022-07-17T15:25:06;4.63;;;3.07;;
47103;SDS011;32853;52.164;5.400;2022-07-17T15:27:32;5.80;;;3.47;;
47103;SDS011;32853;52.164;5.400;2022-07-17T15:29:57;8.70;;;3.20;;
47103;SDS011;32853;52.164;5.400;2022-07-17T15:32:25;4.78;;;2.10;;
47103;SDS011;32853;52.164;5.400;2022-07-17T15:34:51;4.27;;;2.20;;
47103;SDS011;32853;52.164;5.400;2022-07-17T15:37:16;4.68;;;2.17;;
47103;SDS011;32853;52.164;5.400;2022-07-17T15:39:44;4.40;;;1.80;;
47103;SDS011;32853;52.164;5.400;2022-07-17T15:42:09;10.07;;;3.30;;
47103;SDS011;32853;52.164;5.400;2022-07-17T15:44:37;6.00;;;3.40;;
47103;SDS011;32853;52.164;5.400;2022-07-17T15:47:02;6.65;;;2.90;;
47103;SDS011;32853;52.164;5.400;2022-07-17T15:49:28;6.80;;;2.70;;
47103;SDS011;32853;52.164;5.400;2022-07-17T15:51:53;5.83;;;2.60;;
47103;SDS011;32853;52.164;5.400;2022-07-17T15:54:19;5.50;;;2.40;;
47103;SDS011;32853;52.164;5.400;2022-07-17T15:56:45;5.63;;;2.27;;
47103;SDS011;32853;52.164;5.400;2022-07-17T15:59:12;4.95;;;3.10;;
47103;SDS011;32853;52.164;5.400;2022-07-17T16:01:38;5.77;;;3.20;;
47103;SDS011;32853;52.164;5.400;2022-07-17T16:04:03;4.68;;;2.70;;
47103;SDS011;32853;52.164;5.400;2022-07-17T16:06:30;5.55;;;2.50;;
47103;SDS011;32853;52.164;5.400;2022-07-17T16:08:56;5.97;;;2.70;;
47103;SDS011;32853;52.164;5.400;2022-07-17T16:11:22;5.60;;;2.90;;
47103;SDS011;32853;52.164;5.400;2022-07-17T16:13:48;8.23;;;3.00;;
47103;SDS011;32853;52.164;5.400;2022-07-17T16:16:14;8.07;;;2.70;;
47103;SDS011;32853;52.164;5.400;2022-07-17T16:18:39;5.70;;;2.77;;
47103;SDS011;32853;52.164;5.400;2022-07-17T16:21:05;6.32;;;2.33;;
47103;SDS011;32853;52.164;5.400;2022-07-17T16:23:30;4.47;;;2.30;;
47103;SDS011;32853;52.164;5.400;2022-07-17T16:25:55;6.33;;;3.17;;
47103;SDS011;32853;52.164;5.400;2022-07-17T16:28:21;5.00;;;2.53;;
47103;SDS011;32853;52.164;5.400;2022-07-17T16:30:49;6.53;;;2.45;;
47103;SDS011;32853;52.164;5.400;2022-07-17T16:33:14;5.17;;;2.43;;
47103;SDS011;32853;52.164;5.400;2022-07-17T16:35:40;7.50;;;2.88;;
47103;SDS011;32853;52.164;5.400;2022-07-17T16:38:05;5.30;;;2.60;;
47103;SDS011;32853;52.164;5.400;2022-07-17T16:40:31;4.80;;;2.38;;
47103;SDS011;32853;52.164;5.400;2022-07-17T16:42:56;4.90;;;2.63;;
47103;SDS011;32853;52.164;5.400;2022-07-17T16:45:22;4.47;;;2.40;;
47103;SDS011;32853;52.164;5.400;2022-07-17T16:47:47;4.43;;;2.33;;
47103;SDS011;32853;52.164;5.400;2022-07-17T16:50:12;4.83;;;2.30;;
47103;SDS011;32853;52.164;5.400;2022-07-17T16:52:38;3.85;;;2.33;;
47103;SDS011;32853;52.164;5.400;2022-07-17T16:55:03;4.80;;;2.43;;
47103;SDS011;32853;52.164;5.400;2022-07-17T16:57:29;5.88;;;2.67;;
47103;SDS011;32853;52.164;5.400;2022-07-17T16:59:55;4.13;;;2.43;;
47103;SDS011;32853;52.164;5.400;2022-07-17T17:02:20;5.40;;;2.90;;
47103;SDS011;32853;52.164;5.400;2022-07-17T17:04:45;5.37;;;2.53;;
47103;SDS011;32853;52.164;5.400;2022-07-17T17:07:11;4.40;;;2.00;;
47103;SDS011;32853;52.164;5.400;2022-07-17T17:09:36;5.90;;;2.17;;
47103;SDS011;32853;52.164;5.400;2022-07-17T17:12:02;7.47;;;2.42;;
47103;SDS011;32853;52.164;5.400;2022-07-17T17:14:28;4.43;;;1.88;;
47103;SDS011;32853;52.164;5.400;2022-07-17T17:16:54;3.83;;;2.37;;
47103;SDS011;32853;52.164;5.400;2022-07-17T17:19:19;5.97;;;2.30;;
47103;SDS011;32853;52.164;5.400;2022-07-17T17:21:44;4.35;;;2.30;;
47103;SDS011;32853;52.164;5.400;2022-07-17T17:24:10;5.73;;;2.23;;
47103;SDS011;32853;52.164;5.400;2022-07-17T17:26:35;7.17;;;2.20;;
47103;SDS011;32853;52.164;5.400;2022-07-17T17:29:00;8.30;;;2.30;;
47103;SDS011;32853;52.164;5.400;2022-07-17T17:31:26;6.07;;;2.13;;
47103;SDS011;32853;52.164;5.400;2022-07-17T17:33:51;4.47;;;2.20;;
47103;SDS011;32853;52.164;5.400;2022-07-17T17:36:17;4.93;;;2.57;;
47103;SDS011;32853;52.164;5.400;2022-07-17T17:38:43;6.63;;;3.25;;
47103;SDS011;32853;52.164;5.400;2022-07-17T17:41:08;4.00;;;2.20;;
47103;SDS011;32853;52.164;5.400;2022-07-17T17:43:33;4.93;;;2.40;;
47103;SDS011;32853;52.164;5.400;2022-07-17T17:45:59;7.05;;;2.80;;
47103;SDS011;32853;52.164;5.400;2022-07-17T17:48:24;7.07;;;2.63;;
47103;SDS011;32853;52.164;5.400;2022-07-17T17:50:51;6.65;;;2.60;;
47103;SDS011;32853;52.164;5.400;2022-07-17T17:53:17;6.00;;;2.40;;
47103;SDS011;32853;52.164;5.400;2022-07-17T17:55:43;4.70;;;2.43;;
47103;SDS011;32853;52.164;5.400;2022-07-17T17:58:08;5.80;;;2.50;;
47103;SDS011;32853;52.164;5.400;2022-07-17T18:00:33;4.40;;;2.30;;
47103;SDS011;32853;52.164;5.400;2022-07-17T18:02:59;7.03;;;3.10;;
47103;SDS011;32853;52.164;5.400;2022-07-17T18:05:25;4.68;;;2.50;;
47103;SDS011;32853;52.164;5.400;2022-07-17T18:07:50;5.75;;;2.40;;
47103;SDS011;32853;52.164;5.400;2022-07-17T18:10:16;5.50;;;2.67;;
47103;SDS011;32853;52.164;5.400;2022-07-17T18:12:41;6.13;;;2.50;;
47103;SDS011;32853;52.164;5.400;2022-07-17T18:15:07;5.90;;;2.42;;
47103;SDS011;32853;52.164;5.400;2022-07-17T18:17:33;5.07;;;2.38;;
47103;SDS011;32853;52.164;5.400;2022-07-17T18:19:59;7.82;;;2.55;;
47103;SDS011;32853;52.164;5.400;2022-07-17T18:22:25;6.63;;;2.97;;
47103;SDS011;32853;52.164;5.400;2022-07-17T18:24:50;4.57;;;2.10;;
47103;SDS011;32853;52.164;5.400;2022-07-17T18:27:17;4.05;;;2.30;;
47103;SDS011;32853;52.164;5.400;2022-07-17T18:29:43;5.97;;;3.03;;
47103;SDS011;32853;52.164;5.400;2022-07-17T18:38:03;4.13;;;1.80;;
47103;SDS011;32853;52.164;5.400;2022-07-17T18:40:28;5.27;;;2.60;;
47103;SDS011;32853;52.164;5.400;2022-07-17T18:42:54;5.53;;;2.43;;
47103;SDS011;32853;52.164;5.400;2022-07-17T18:45:19;6.37;;;2.53;;
47103;SDS011;32853;52.164;5.400;2022-07-17T18:47:44;5.00;;;2.30;;
47103;SDS011;32853;52.164;5.400;2022-07-17T18:50:10;7.30;;;2.33;;
47103;SDS011;32853;52.164;5.400;2022-07-17T18:52:39;5.90;;;2.33;;
47103;SDS011;32853;52.164;5.400;2022-07-17T18:55:04;6.40;;;2.60;;
47103;SDS011;32853;52.164;5.400;2022-07-17T18:57:30;6.07;;;2.88;;
47103;SDS011;32853;52.164;5.400;2022-07-17T18:59:56;5.82;;;2.63;;
47103;SDS011;32853;52.164;5.400;2022-07-17T19:02:22;7.60;;;2.58;;
47103;SDS011;32853;52.164;5.400;2022-07-17T19:04:47;9.20;;;2.50;;
47103;SDS011;32853;52.164;5.400;2022-07-17T19:07:12;5.10;;;2.43;;
47103;SDS011;32853;52.164;5.400;2022-07-17T19:09:38;7.65;;;4.35;;
47103;SDS011;32853;52.164;5.400;2022-07-17T19:12:07;5.60;;;3.27;;
47103;SDS011;32853;52.164;5.400;2022-07-17T19:14:33;4.37;;;2.43;;
47103;SDS011;32853;52.164;5.400;2022-07-17T19:16:58;7.10;;;2.30;;
47103;SDS011;32853;52.164;5.400;2022-07-17T19:19:23;6.43;;;2.70;;
47103;SDS011;32853;52.164;5.400;2022-07-17T19:21:52;5.93;;;2.60;;
47103;SDS011;32853;52.164;5.400;2022-07-17T19:24:17;6.83;;;2.60;;
47103;SDS011;32853;52.164;5.400;2022-07-17T19:26:44;6.43;;;2.20;;
47103;SDS011;32853;52.164;5.400;2022-07-17T19:29:10;4.82;;;2.35;;
47103;SDS011;32853;52.164;5.400;2022-07-17T19:31:35;7.60;;;2.28;;
47103;SDS011;32853;52.164;5.400;2022-07-17T19:34:00;5.40;;;2.80;;
47103;SDS011;32853;52.164;5.400;2022-07-17T19:36:26;6.23;;;2.50;;
47103;SDS011;32853;52.164;5.400;2022-07-17T19:38:51;5.57;;;2.70;;
47103;SDS011;32853;52.164;5.400;2022-07-17T19:41:17;5.23;;;3.00;;
47103;SDS011;32853;52.164;5.400;2022-07-17T19:43:42;5.33;;;2.63;;
47103;SDS011;32853;52.164;5.400;2022-07-17T19:46:07;8.63;;;3.30;;
47103;SDS011;32853;52.164;5.400;2022-07-17T19:48:33;5.60;;;3.07;;
47103;SDS011;32853;52.164;5.400;2022-07-17T19:50:58;7.17;;;3.03;;
47103;SDS011;32853;52.164;5.400;2022-07-17T19:53:23;6.93;;;3.47;;
47103;SDS011;32853;52.164;5.400;2022-07-17T19:55:48;6.30;;;3.13;;
47103;SDS011;32853;52.164;5.400;2022-07-17T19:58:32;6.65;;;3.03;;
47103;SDS011;32853;52.164;5.400;2022-07-17T20:00:58;6.17;;;3.20;;
47103;SDS011;32853;52.164;5.400;2022-07-17T20:03:23;7.18;;;3.40;;
47103;SDS011;32853;52.164;5.400;2022-07-17T20:05:49;7.87;;;4.37;;
47103;SDS011;32853;52.164;5.400;2022-07-17T20:08:14;9.23;;;4.20;;
47103;SDS011;32853;52.164;5.400;2022-07-17T20:10:39;9.13;;;3.53;;
47103;SDS011;32853;52.164;5.400;2022-07-17T20:13:05;6.00;;;3.73;;
47103;SDS011;32853;52.164;5.400;2022-07-17T20:15:30;15.00;;;9.20;;
47103;SDS011;32853;52.164;5.400;2022-07-17T20:17:55;9.13;;;4.43;;
47103;SDS011;32853;52.164;5.400;2022-07-17T20:20:21;7.60;;;3.77;;
47103;SDS011;32853;52.164;5.400;2022-07-17T20:22:46;5.80;;;3.40;;
47103;SDS011;32853;52.164;5.400;2022-07-17T20:25:11;7.77;;;3.27;;
47103;SDS011;32853;52.164;5.400;2022-07-17T20:27:40;7.37;;;3.97;;
47103;SDS011;32853;52.164;5.400;2022-07-17T20:30:05;10.13;;;3.83;;
47103;SDS011;32853;52.164;5.400;2022-07-17T20:32:32;8.40;;;3.33;;
47103;SDS011;32853;52.164;5.400;2022-07-17T20:34:58;8.70;;;3.80;;
47103;SDS011;32853;52.164;5.400;2022-07-17T20:37:24;11.10;;;3.60;;
47103;SDS011;32853;52.164;5.400;2022-07-17T20:39:49;6.70;;;3.40;;
47103;SDS011;32853;52.164;5.400;2022-07-17T20:42:14;6.73;;;3.37;;
47103;SDS011;32853;52.164;5.400;2022-07-17T20:44:40;6.13;;;3.45;;
47103;SDS011;32853;52.164;5.400;2022-07-17T20:47:05;9.93;;;4.10;;
47103;SDS011;32853;52.164;5.400;2022-07-17T20:49:30;8.38;;;3.85;;
47103;SDS011;32853;52.164;5.400;2022-07-17T20:51:55;7.17;;;3.60;;
47103;SDS011;32853;52.164;5.400;2022-07-17T20:54:21;13.82;;;4.20;;
47103;SDS011;32853;52.164;5.400;2022-07-17T20:56:46;9.97;;;4.13;;
47103;SDS011;32853;52.164;5.400;2022-07-17T20:59:11;10.60;;;4.18;;
47103;SDS011;32853;52.164;5.400;2022-07-17T21:01:37;8.53;;;3.50;;
47103;SDS011;32853;52.164;5.400;2022-07-17T21:04:02;9.03;;;3.80;;
47103;SDS011;32853;52.164;5.400;2022-07-17T21:06:28;5.85;;;3.33;;
47103;SDS011;32853;52.164;5.400;2022-07-17T21:08:54;8.40;;;3.43;;
47103;SDS011;32853;52.164;5.400;2022-07-17T21:11:19;9.75;;;3.60;;
47103;SDS011;32853;52.164;5.400;2022-07-17T21:13:44;8.63;;;3.77;;
47103;SDS011;32853;52.164;5.400;2022-07-17T21:16:10;11.90;;;4.18;;
47103;SDS011;32853;52.164;5.400;2022-07-17T21:18:35;8.95;;;3.80;;
47103;SDS011;32853;52.164;5.400;2022-07-17T21:21:01;9.57;;;3.93;;
47103;SDS011;32853;52.164;5.400;2022-07-17T21:23:26;8.40;;;3.80;;
47103;SDS011;32853;52.164;5.400;2022-07-17T21:25:52;17.77;;;4.80;;
47103;SDS011;32853;52.164;5.400;2022-07-17T21:28:17;9.93;;;3.80;;
47103;SDS011;32853;52.164;5.400;2022-07-17T21:30:43;8.47;;;3.37;;
47103;SDS011;32853;52.164;5.400;2022-07-17T21:33:09;8.87;;;3.97;;
47103;SDS011;32853;52.164;5.400;2022-07-17T21:35:34;9.52;;;3.92;;
47103;SDS011;32853;52.164;5.400;2022-07-17T21:38:02;8.55;;;3.85;;
47103;SDS011;32853;52.164;5.400;2022-07-17T21:40:28;9.38;;;4.43;;
47103;SDS011;32853;52.164;5.400;2022-07-17T21:42:54;9.20;;;3.83;;
47103;SDS011;32853;52.164;5.400;2022-07-17T21:45:20;6.93;;;3.63;;
47103;SDS011;32853;52.164;5.400;2022-07-17T21:47:47;8.27;;;3.58;;
47103;SDS011;32853;52.164;5.400;2022-07-17T21:50:13;8.30;;;3.73;;
47103;SDS011;32853;52.164;5.400;2022-07-17T21:52:38;10.80;;;4.20;;
47103;SDS011;32853;52.164;5.400;2022-07-17T21:55:04;10.20;;;3.88;;
47103;SDS011;32853;52.164;5.400;2022-07-17T21:57:29;8.85;;;3.90;;
47103;SDS011;32853;52.164;5.400;2022-07-17T21:59:55;12.83;;;4.63;;
47103;SDS011;32853;52.164;5.400;2022-07-17T22:02:20;9.57;;;4.23;;
47103;SDS011;32853;52.164;5.400;2022-07-17T22:04:46;9.45;;;3.80;;
47103;SDS011;32853;52.164;5.400;2022-07-17T22:07:12;8.52;;;4.15;;
47103;SDS011;32853;52.164;5.400;2022-07-17T22:09:37;8.73;;;4.50;;
47103;SDS011;32853;52.164;5.400;2022-07-17T22:12:03;9.80;;;3.73;;
47103;SDS011;32853;52.164;5.400;2022-07-17T22:14:29;18.77;;;4.60;;
47103;SDS011;32853;52.164;5.400;2022-07-17T22:16:54;12.53;;;4.83;;
47103;SDS011;32853;52.164;5.400;2022-07-17T22:19:20;11.63;;;4.50;;
47103;SDS011;32853;52.164;5.400;2022-07-17T22:21:45;10.13;;;5.18;;
47103;SDS011;32853;52.164;5.400;2022-07-17T22:24:11;9.27;;;5.20;;
47103;SDS011;32853;52.164;5.400;2022-07-17T22:26:36;8.18;;;4.50;;
47103;SDS011;32853;52.164;5.400;2022-07-17T22:29:02;13.80;;;4.80;;
47103;SDS011;32853;52.164;5.400;2022-07-17T22:31:28;8.57;;;4.90;;
47103;SDS011;32853;52.164;5.400;2022-07-17T22:33:53;10.37;;;4.90;;
47103;SDS011;32853;52.164;5.400;2022-07-17T22:36:19;8.07;;;4.70;;
47103;SDS011;32853;52.164;5.400;2022-07-17T22:38:44;11.50;;;5.07;;
47103;SDS011;32853;52.164;5.400;2022-07-17T22:41:09;10.60;;;4.87;;
47103;SDS011;32853;52.164;5.400;2022-07-17T22:43:35;11.93;;;5.07;;
47103;SDS011;32853;52.164;5.400;2022-07-17T22:46:00;9.63;;;4.57;;
47103;SDS011;32853;52.164;5.400;2022-07-17T22:48:25;7.77;;;4.50;;
47103;SDS011;32853;52.164;5.400;2022-07-17T22:50:52;19.30;;;5.13;;
47103;SDS011;32853;52.164;5.400;2022-07-17T22:53:18;10.07;;;4.60;;
47103;SDS011;32853;52.164;5.400;2022-07-17T22:55:43;8.85;;;4.45;;
47103;SDS011;32853;52.164;5.400;2022-07-17T22:58:08;9.23;;;4.80;;
47103;SDS011;32853;52.164;5.400;2022-07-17T23:00:34;6.60;;;3.60;;
47103;SDS011;32853;52.164;5.400;2022-07-17T23:02:59;10.95;;;4.45;;
47103;SDS011;32853;52.164;5.400;2022-07-17T23:05:25;8.95;;;4.63;;
47103;SDS011;32853;52.164;5.400;2022-07-17T23:07:51;8.77;;;4.53;;
47103;SDS011;32853;52.164;5.400;2022-07-17T23:10:16;8.23;;;4.63;;
47103;SDS011;32853;52.164;5.400;2022-07-17T23:12:42;11.87;;;5.10;;
47103;SDS011;32853;52.164;5.400;2022-07-17T23:15:07;8.97;;;4.83;;
47103;SDS011;32853;52.164;5.400;2022-07-17T23:17:33;15.63;;;4.80;;
47103;SDS011;32853;52.164;5.400;2022-07-17T23:19:58;9.93;;;4.33;;
47103;SDS011;32853;52.164;5.400;2022-07-17T23:22:24;7.97;;;3.90;;
47103;SDS011;32853;52.164;5.400;2022-07-17T23:24:49;11.17;;;4.10;;
47103;SDS011;32853;52.164;5.400;2022-07-17T23:27:14;11.75;;;4.10;;
47103;SDS011;32853;52.164;5.400;2022-07-17T23:29:40;5.37;;;3.20;;
47103;SDS011;32853;52.164;5.400;2022-07-17T23:32:08;12.77;;;4.20;;
47103;SDS011;32853;52.164;5.400;2022-07-17T23:34:52;7.10;;;3.88;;
47103;SDS011;32853;52.164;5.400;2022-07-17T23:37:18;10.50;;;4.13;;
47103;SDS011;32853;52.164;5.400;2022-07-17T23:39:44;7.97;;;4.20;;
47103;SDS011;32853;52.164;5.400;2022-07-17T23:42:10;9.25;;;4.30;;
47103;SDS011;32853;52.164;5.400;2022-07-17T23:44:36;10.00;;;4.28;;
47103;SDS011;32853;52.164;5.400;2022-07-17T23:47:02;10.63;;;4.10;;
47103;SDS011;32853;52.164;5.400;2022-07-17T23:49:28;8.93;;;3.70;;
47103;SDS011;32853;52.164;5.400;2022-07-17T23:51:54;8.57;;;4.33;;
47103;SDS011;32853;52.164;5.400;2022-07-17T23:54:19;11.57;;;4.20;;
47103;SDS011;32853;52.164;5.400;2022-07-17T23:56:44;8.70;;;4.67;;
47103;SDS011;32853;52.164;5.400;2022-07-17T23:59:09;12.07;;;4.40;;
